Strona główna
METAR-TAF:

METAR-TAF

Lotnisko :

Parnaíba, Piauí, Brazylia

Szerokość geograficzna: 02-55S, Długość geograficzna: 041-45W, wysokość: 5 m

Aktualna obserwacja pogody

Raport powstał 49 minut temu, godzina 14:00 UTC
Wiatr 7 kt od wschód
Temperatura 31°C
Wilgotność 75%
Ciśnienie 1009 hPa
Widzialność 10 km lub więcej
Rozproszone chmury na wysokości 1700 ft

METAR: SBPB 191400Z 08007KT 9999 SCT017 31/26 Q1009

czas: 11:49 (14:49 UTC)

Prognoza

Raport powstał 4 godziny i 49 minut temu, godzina 10:00 UTC
Prognoza ważna od 19 godzina 12 UTC do 19 godzina 24 UTC
Wiatr 7 kt od północny wschód
Widzialność 10 km lub więcej
Rozproszone chmury na wysokości 1700 ft
Stopniowe zmiany
od 19 godzina 16 UTC do 19 godzina 18 UTC
Wiatr 15 kt od wschód

TAF: SBPB 191000Z 1912/1924 05007KT 9999 SCT017 TX32/1916Z TN28/1917Z BECMG 1916/1918 08015KT RMK PAZ

Obserwacja i prognoza pogody dla ponad 4000 lotnisk (raport METAR i TAF).

Dostępne stacje oznaczono żółtymi i czerwonymi punktami na mapie.

Najedź kursorem aby zobaczyć nazwę stacji.

Kliknij aby zobaczyć obserwacje i prognozy pogody.

Aby zmienić mapę: kliknij na zielony przycisk z czarnym krzyżykiem, aby powiększyć; na zielony przycisk z myślnikiem, aby pomniejszyć; na zielone strzałki, aby przejść do map sąsiednich.


METAR-TAF: